Boger City, North Carolina
Current Conditions -  °F | °C
As of 10:15 AM on Monday 24 Nov 2014 (Local Time) from KIPJ Reporting Station
Overcast Overcast  
Wind Chill: 63°   Ceiling: 1800
Heat Index: 63°   Visibility: 10mi
Dew Point: 56°   Wind: 9mph
Humidity: 78%   Direction: 230°SW
Pressure: 29.8"   Gusts: NA
Location:  35.4951°N, 81.2237°W
Report Text: KIPJ 241515Z AUTO 23008KT 10SM BKN018 OVC023 17/13 A2980 RMK AO2 T01720133
Loading
Personal Weather Stations






























Interactive Weather Map New forecast layout! Learn more

10-Day Weather Forecast

Advertisements
Track Severe Weather on mobile